Time;durP1;ratioP1;P1;durP2;ratioP2;P2;SDS_P1;SDS_P2;PMS_P1;PMS_P2;Temp;Humidity;BMP_temperature;BMP_pressure;BME280_temperature;BME280_humidity;BME280_pressure;Samples;Min_cycle;Max_cycle;Signal;HPM_P1;HPM_P2
2022/06/18 00:00:20;;;;;;;0.20;0.10;;;;;;;;;;4945951;28;20125;-88
2022/06/18 00:02:46;;;;;;;0.20;0.10;;;;;;;;;;4964647;28;20656;-88
2022/06/18 00:05:13;;;;;;;0.35;0.30;;;;;;;;;;4948562;28;20046;-88
2022/06/18 00:07:43;;;;;;;0.20;0.10;;;;;;;;;;4963050;28;20074;-89
2022/06/18 00:10:12;;;;;;;0.20;0.10;;;;;;;;;;4955708;28;20034;-88
2022/06/18 00:15:27;;;;;;;0.20;0.10;;;;;;;;;;4948269;28;20043;-89
2022/06/18 00:17:53;;;;;;;0.20;0.20;;;;;;;;;;4946021;28;20343;-89
2022/06/18 00:20:20;;;;;;;0.38;0.25;;;;;;;;;;4958144;28;20034;-88
2022/06/18 00:22:53;;;;;;;0.20;0.10;;;19.80;99.90;;;;;;4944501;28;20385;-89
2022/06/18 00:25:19;;;;;;;0.20;0.10;;;;;;;;;;4965768;28;20116;-88
2022/06/18 00:27:45;;;;;;;0.50;0.20;;;19.50;99.90;;;;;;4960576;28;20043;-89
2022/06/18 00:30:13;;;;;;;0.20;0.10;;;;;;;;;;4945958;28;20039;-89
2022/06/18 00:32:39;;;;;;;1.45;0.30;;;;;;;;;;4961682;28;20145;-89
2022/06/18 00:35:06;;;;;;;0.20;0.10;;;;;;;;;;4947332;28;20053;-89
2022/06/18 00:37:32;;;;;;;0.20;0.10;;;;;;;;;;4949900;28;20042;-90
2022/06/18 00:39:58;;;;;;;0.20;0.13;;;19.40;99.90;;;;;;4947511;28;20062;-89
2022/06/18 00:42:29;;;;;;;0.20;0.10;;;;;;;;;;4933322;28;20035;-89
2022/06/18 00:44:57;;;;;;;0.20;0.20;;;;;;;;;;4964883;28;20046;-88
2022/06/18 00:47:50;;;;;;;0.20;0.10;;;;;;;;;;4944320;28;20093;-89
2022/06/18 00:50:43;;;;;;;0.25;0.25;;;;;;;;;;4927187;28;20058;-90
2022/06/18 00:53:17;;;;;;;0.40;0.28;;;;;;;;;;4952050;28;20202;-89
2022/06/18 00:55:59;;;;;;;0.22;0.20;;;;;;;;;;4959742;28;20055;-88
2022/06/18 00:58:29;;;;;;;1.52;1.15;;;;;;;;;;4946323;28;20463;-88
2022/06/18 01:00:56;;;;;;;0.22;0.17;;;;;;;;;;4940030;28;20035;-87
2022/06/18 01:03:43;;;;;;;0.20;0.10;;;;;;;;;;4940796;28;20548;-87
2022/06/18 01:06:14;;;;;;;0.85;0.30;;;;;;;;;;4961851;28;20039;-88
2022/06/18 01:08:41;;;;;;;0.20;0.10;;;;;;;;;;4959014;28;20119;-88
2022/06/18 01:11:27;;;;;;;0.20;0.10;;;;;;;;;;4944318;28;20039;-88
2022/06/18 01:14:01;;;;;;;0.40;0.40;;;;;;;;;;4947252;28;20122;-88
2022/06/18 01:16:32;;;;;;;0.20;0.10;;;;;;;;;;4952717;28;20035;-86
2022/06/18 01:22:52;;;;;;;0.20;0.10;;;;;;;;;;4910993;29;20043;-88
2022/06/18 01:33:22;;;;;;;0.43;0.32;;;;;;;;;;4945313;28;20051;-88
2022/06/18 01:36:35;;;;;;;2.72;0.35;;;;;;;;;;4905624;29;20062;-88
2022/06/18 01:39:07;;;;;;;0.20;0.15;;;;;;;;;;4926722;29;20055;-89
2022/06/18 01:41:51;;;;;;;0.45;0.22;;;;;;;;;;4943070;28;20036;-87
2022/06/18 01:44:40;;;;;;;0.28;0.28;;;;;;;;;;4920917;29;20468;-88
2022/06/18 01:47:22;;;;;;;0.35;0.35;;;;;;;;;;4933707;29;20082;-88
2022/06/18 01:50:07;;;;;;;0.38;0.38;;;;;;;;;;4926608;29;20063;-87
2022/06/18 01:52:43;;;;;;;0.20;0.10;;;;;;;;;;4929216;29;20582;-87
2022/06/18 02:06:54;;;;;;;2.92;0.35;;;18.80;99.90;;;;;;4963035;23;20047;-89
2022/06/18 02:09:49;;;;;;;0.20;0.10;;;18.70;99.90;;;;;;4964384;28;20460;-88
2022/06/18 02:12:34;;;;;;;0.20;0.10;;;18.70;99.90;;;;;;4982897;28;21404;-88
2022/06/18 02:15:15;;;;;;;0.20;0.10;;;18.70;99.90;;;;;;4954091;28;20042;-88
2022/06/18 02:17:41;;;;;;;0.63;0.40;;;18.70;99.90;;;;;;4945103;28;20035;-88
2022/06/18 02:20:13;;;;;;;0.45;0.43;;;18.70;99.90;;;;;;4962516;28;20144;-89
2022/06/18 02:22:45;;;;;;;0.65;0.30;;;18.60;99.90;;;;;;4947976;28;20100;-89
2022/06/18 02:25:13;;;;;;;0.20;0.20;;;18.60;99.90;;;;;;4963687;28;20371;-88
2022/06/18 02:27:42;;;;;;;0.20;0.10;;;18.60;99.90;;;;;;4965443;28;20039;-88
2022/06/18 02:30:18;;;;;;;0.20;0.20;;;18.60;99.90;;;;;;4963410;28;20043;-89
2022/06/18 02:33:09;;;;;;;0.20;0.10;;;18.60;99.90;;;;;;4965460;28;20267;-88
2022/06/18 02:35:36;;;;;;;0.22;0.20;;;18.50;99.90;;;;;;4949333;28;20051;-88
2022/06/18 02:38:30;;;;;;;0.20;0.17;;;18.50;99.90;;;;;;4965342;28;20566;-89
2022/06/18 02:40:56;;;;;;;0.35;0.35;;;18.50;99.90;;;;;;4940613;28;20055;-88
2022/06/18 02:43:22;;;;;;;0.30;0.25;;;18.50;99.90;;;;;;4916083;28;20051;-88
2022/06/18 02:45:52;;;;;;;0.20;0.20;;;18.50;99.90;;;;;;4929428;28;20046;-88
2022/06/18 02:48:18;;;;;;;0.20;0.10;;;18.50;99.90;;;;;;4961986;28;20047;-88
2022/06/18 02:50:45;;;;;;;0.32;0.30;;;18.50;99.90;;;;;;4945789;28;20046;-88
2022/06/18 02:53:12;;;;;;;0.20;0.13;;;18.50;99.90;;;;;;4951447;28;20050;-89
2022/06/18 02:55:42;;;;;;;0.20;0.10;;;18.50;99.90;;;;;;4962391;28;20031;-89
2022/06/18 02:58:18;;;;;;;0.20;0.20;;;18.50;99.90;;;;;;4950571;28;20038;-89
2022/06/18 03:00:56;;;;;;;0.20;0.10;;;18.50;99.90;;;;;;4962763;28;20495;-89
2022/06/18 03:03:25;;;;;;;0.20;0.10;;;18.50;99.90;;;;;;4946333;28;20046;-89
2022/06/18 03:05:52;;;;;;;0.20;0.10;;;18.40;99.90;;;;;;4957673;28;20548;-89
2022/06/18 03:08:20;;;;;;;0.20;0.10;;;18.40;99.90;;;;;;4926242;28;20034;-89
2022/06/18 03:13:31;;;;;;;0.20;0.10;;;;;;;;;;4963148;28;20944;-89
2022/06/18 03:15:57;;;;;;;0.20;0.10;;;;;;;;;;4960276;28;20039;-89
2022/06/18 03:18:25;;;;;;;0.20;0.10;;;;;;;;;;4934666;28;20043;-89
2022/06/18 03:20:57;;;;;;;0.20;0.10;;;;;;;;;;4947134;28;20038;-88
2022/06/18 03:23:24;;;;;;;0.38;0.30;;;;;;;;;;4963439;28;20047;-89
2022/06/18 03:25:50;;;;;;;0.20;0.03;;;;;;;;;;4943207;28;20035;-89
2022/06/18 03:28:18;;;;;;;0.50;0.22;;;;;;;;;;4928468;28;20066;-89
2022/06/18 03:30:44;;;;;;;0.20;0.20;;;;;;;;;;4941272;28;20053;-89
2022/06/18 03:33:12;;;;;;;0.20;0.10;;;;;;;;;;4951360;28;20054;-90
2022/06/18 03:35:43;;;;;;;0.20;0.10;;;;;;;;;;4956690;28;20031;-89
2022/06/18 03:38:10;;;;;;;0.20;0.10;;;;;;;;;;4945392;28;20066;-89
2022/06/18 03:40:37;;;;;;;0.20;0.10;;;;;;;;;;4943889;28;20380;-90
2022/06/18 03:43:03;;;;;;;0.60;0.30;;;;;;;;;;4943152;28;20090;-89
2022/06/18 03:45:31;;;;;;;0.20;0.20;;;;;;;;;;4925856;28;20050;-90
2022/06/18 03:47:57;;;;;;;0.60;0.22;;;;;;;;;;4943338;28;20043;-88
2022/06/18 03:50:23;;;;;;;1.35;0.32;;;;;;;;;;4961008;28;20047;-89
2022/06/18 03:52:49;;;;;;;0.20;0.20;;;;;;;;;;4959872;28;20043;-89
2022/06/18 03:55:16;;;;;;;0.95;0.28;;;;;;;;;;4944598;28;20037;-89
2022/06/18 03:57:43;;;;;;;0.22;0.20;;;;;;;;;;4958345;28;20034;-89
2022/06/18 04:00:13;;;;;;;0.20;0.10;;;;;;;;;;4942236;28;20054;-89
2022/06/18 04:02:39;;;;;;;0.20;0.15;;;;;;;;;;4940491;28;20042;-89
2022/06/18 04:05:06;;;;;;;0.20;0.10;;;;;;;;;;4948410;28;20047;-89
2022/06/18 04:07:32;;;;;;;0.22;0.22;;;;;;;;;;4966494;28;20046;-88
2022/06/18 04:10:01;;;;;;;1.85;0.40;;;;;;;;;;4963554;28;20042;-89
2022/06/18 04:12:28;;;;;;;0.20;0.10;;;;;;;;;;4965465;28;20132;-87
2022/06/18 04:14:54;;;;;;;0.20;0.10;;;;;;;;;;4948486;28;20141;-89
2022/06/18 04:17:21;;;;;;;0.30;0.20;;;;;;;;;;4962700;28;20049;-88
2022/06/18 04:19:47;;;;;;;0.20;0.10;;;;;;;;;;4963977;28;20042;-89
2022/06/18 04:22:14;;;;;;;0.52;0.52;;;;;;;;;;4963578;28;20410;-87
2022/06/18 04:24:40;;;;;;;0.20;0.10;;;;;;;;;;4963071;28;20038;-88
2022/06/18 04:27:07;;;;;;;0.20;0.10;;;;;;;;;;4965048;28;20502;-88
2022/06/18 04:29:33;;;;;;;0.20;0.10;;;;;;;;;;4944066;28;20053;-86
2022/06/18 04:32:00;;;;;;;0.20;0.10;;;;;;;;;;4964303;28;20078;-88
2022/06/18 04:34:29;;;;;;;0.20;0.20;;;;;;;;;;4949668;28;20491;-87
2022/06/18 04:36:55;;;;;;;0.20;0.10;;;;;;;;;;4963349;28;20034;-89
2022/06/18 04:39:21;;;;;;;0.20;0.10;;;;;;;;;;4966494;28;20042;-87
2022/06/18 04:41:48;;;;;;;0.20;0.10;;;;;;;;;;4952711;28;20049;-88
2022/06/18 04:44:14;;;;;;;0.20;0.10;;;;;;;;;;4963785;28;20046;-87
2022/06/18 04:46:40;;;;;;;0.20;0.10;;;;;;;;;;4976496;28;20046;-88
2022/06/18 04:49:07;;;;;;;0.20;0.10;;;;;;;;;;4960855;28;20046;-88
2022/06/18 04:51:33;;;;;;;0.20;0.10;;;;;;;;;;4947196;28;20054;-89
2022/06/18 04:53:59;;;;;;;0.30;0.13;;;;;;;;;;4946594;28;20757;-88
2022/06/18 04:56:25;;;;;;;0.20;0.10;;;;;;;;;;4945746;28;20030;-88
2022/06/18 04:58:51;;;;;;;0.28;0.17;;;;;;;;;;4962211;28;20053;-88
2022/06/18 05:01:21;;;;;;;0.20;0.10;;;;;;;;;;4945149;28;20080;-89
2022/06/18 05:03:48;;;;;;;0.20;0.10;;;;;;;;;;4959105;28;20053;-89
2022/06/18 05:06:15;;;;;;;0.20;0.10;;;;;;;;;;4944621;28;20438;-89
2022/06/18 05:08:41;;;;;;;0.20;0.10;;;;;;;;;;4961835;28;20037;-88
2022/06/18 05:11:07;;;;;;;0.20;0.10;;;;;;;;;;4944156;28;20057;-90
2022/06/18 05:13:34;;;;;;;0.20;0.10;;;;;;;;;;4951998;28;20053;-88
2022/06/18 05:16:00;;;;;;;0.30;0.20;;;;;;;;;;4970101;28;20084;-89
2022/06/18 05:18:29;;;;;;;0.20;0.10;;;;;;;;;;4966342;28;20030;-87
2022/06/18 05:20:55;;;;;;;0.20;0.10;;;;;;;;;;4968838;28;20686;-89
2022/06/18 05:23:24;;;;;;;0.20;0.10;;;;;;;;;;4954124;28;20530;-90
2022/06/18 05:25:58;;;;;;;0.35;0.17;;;;;;;;;;4969856;28;20514;-89
2022/06/18 05:28:24;;;;;;;0.20;0.10;;;;;;;;;;4970544;28;20530;-87
2022/06/18 05:30:50;;;;;;;1.20;0.80;;;;;;;;;;4970421;28;20066;-90
2022/06/18 05:33:21;;;;;;;0.25;0.25;;;;;;;;;;4974601;28;20105;-90
2022/06/18 05:35:53;;;;;;;0.28;0.17;;;;;;;;;;4979766;28;20043;-90
2022/06/18 05:38:19;;;;;;;;;;;;;;;;;;4958400;28;20045;-88
2022/06/18 05:40:45;;;;;;;0.20;0.10;;;;;;;;;;4968728;28;19922;-88
2022/06/18 05:43:12;;;;;;;0.20;0.10;;;;;;;;;;4969441;28;20042;-90
2022/06/18 05:45:39;;;;;;;0.20;0.10;;;;;;;;;;4971588;28;20089;-88
2022/06/18 05:48:05;;;;;;;0.20;0.10;;;;;;;;;;4969392;28;20123;-88
2022/06/18 05:50:31;;;;;;;0.20;0.10;;;;;;;;;;4969914;28;20498;-87
2022/06/18 05:52:58;;;;;;;0.20;0.10;;;;;;;;;;4974872;28;20042;-90
2022/06/18 05:55:25;;;;;;;0.20;0.10;;;;;;;;;;4974379;28;20456;-88
2022/06/18 05:57:53;;;;;;;0.20;0.10;;;;;;;;;;4951545;28;20496;-89
2022/06/18 06:00:32;;;;;;;0.20;0.10;;;;;;;;;;4953936;28;20069;-88
2022/06/18 06:02:58;;;;;;;0.20;0.10;;;;;;;;;;4970153;28;20893;-88
2022/06/18 06:05:25;;;;;;;0.20;0.10;;;;;;;;;;4966994;28;21624;-88
2022/06/18 06:07:51;;;;;;;0.20;0.10;;;;;;;;;;4971569;28;20137;-88
2022/06/18 06:13:13;;;;;;;0.20;0.10;;;;;;;;;;4967153;28;20517;-88
2022/06/18 06:15:40;;;;;;;0.20;0.10;;;;;;;;;;4951524;28;20573;-87
2022/06/18 06:18:07;;;;;;;0.20;0.10;;;;;;;;;;4966507;28;20176;-88
2022/06/18 06:20:35;;;;;;;0.35;0.35;;;;;;;;;;4972704;28;20053;-88
2022/06/18 06:23:01;;;;;;;0.20;0.10;;;;;;;;;;4952432;28;20042;-87
2022/06/18 06:25:31;;;;;;;0.20;0.10;;;;;;;;;;4958951;28;20050;-89
2022/06/18 06:28:00;;;;;;;0.20;0.10;;;;;;;;;;4950234;28;20046;-89
2022/06/18 06:30:26;;;;;;;0.20;0.10;;;;;;;;;;4967195;28;20046;-87
2022/06/18 06:32:55;;;;;;;0.20;0.10;;;;;;;;;;4953981;28;20045;-90
2022/06/18 06:35:21;;;;;;;0.20;0.10;;;;;;;;;;4968462;28;20038;-88
2022/06/18 06:37:48;;;;;;;0.20;0.10;;;;;;;;;;4970793;28;20072;-90
2022/06/18 06:40:14;;;;;;;0.20;0.20;;;;;;;;;;4972548;28;20124;-90
2022/06/18 06:42:44;;;;;;;0.20;0.10;;;;;;;;;;4960722;28;20099;-89
2022/06/18 06:45:12;;;;;;;0.35;0.28;;;;;;;;;;4982804;28;20541;-89
2022/06/18 06:47:38;;;;;;;0.20;0.10;;;;;;;;;;4967299;28;20131;-89
2022/06/18 06:50:04;;;;;;;0.20;0.13;;;;;;;;;;4963983;28;20129;-85
2022/06/18 06:52:30;;;;;;;0.20;0.17;;;;;;;;;;4936870;28;20580;-88
2022/06/18 06:57:43;;;;;;;0.20;0.10;;;;;;;;;;4964457;28;20092;-87
2022/06/18 07:00:10;;;;;;;0.20;0.05;;;;;;;;;;4946371;28;20368;-89
2022/06/18 07:02:36;;;;;;;0.20;0.10;;;;;;;;;;4961517;28;20377;-87
2022/06/18 07:05:08;;;;;;;0.20;0.10;;;;;;;;;;4949566;28;20133;-88
2022/06/18 07:07:37;;;;;;;0.47;0.40;;;;;;;;;;4967240;28;20046;-91
2022/06/18 07:10:08;;;;;;;0.20;0.10;;;;;;;;;;4983331;28;20046;-88
2022/06/18 07:12:34;;;;;;;0.20;0.10;;;;;;;;;;4966396;28;20380;-88
2022/06/18 07:15:15;;;;;;;0.20;0.10;;;;;;;;;;4972904;28;20034;-91
2022/06/18 07:17:52;;;;;;;0.20;0.10;;;;;;;;;;4973625;28;20062;-88
2022/06/18 07:20:46;;;;;;;0.20;0.10;;;;;;;;;;4971256;28;20424;-89
2022/06/18 07:23:38;;;;;;;0.20;0.00;;;;;;;;;;4966280;28;20038;-89
2022/06/18 07:26:37;;;;;;;0.20;0.10;;;;;;;;;;4969591;28;20569;-89
2022/06/18 07:29:09;;;;;;;0.68;0.30;;;;;;;;;;4974905;28;20388;-88
2022/06/18 07:31:40;;;;;;;1.38;1.13;;;;;;;;;;4971730;28;20038;-88
2022/06/18 07:34:09;;;;;;;0.30;0.20;;;;;;;;;;4968716;28;20031;-86
2022/06/18 07:36:43;;;;;;;0.20;0.10;;;;;;;;;;4955910;28;20058;-89
2022/06/18 07:39:12;;;;;;;0.20;0.10;;;;;;;;;;4953201;28;20320;-88
2022/06/18 07:41:41;;;;;;;0.20;0.20;;;;;;;;;;4971473;28;20042;-89
2022/06/18 07:44:08;;;;;;;0.20;0.10;;;;;;;;;;4965948;28;20047;-89
2022/06/18 07:47:07;;;;;;;0.30;0.10;;;;;;;;;;4956711;28;20038;-94
2022/06/18 07:49:50;;;;;;;;;;;;;;;;;;;;;
2022/06/18 07:52:22;;;;;;;0.20;0.17;;;;;;;;;;4968532;28;20054;-89
2022/06/18 07:54:54;;;;;;;0.40;0.10;;;;;;;;;;4956627;28;20043;-90
2022/06/18 09:24:42;;;;;;;0.20;0.10;;;23.70;99.90;;;;;;4961589;28;20043;-90
2022/06/18 09:27:40;;;;;;;0.20;0.10;;;23.70;99.90;;;;;;4932417;28;20045;-89
2022/06/18 09:30:16;;;;;;;0.20;0.10;;;23.60;99.90;;;;;;4904174;28;20511;-89
2022/06/18 09:32:46;;;;;;;0.20;0.10;;;23.60;99.90;;;;;;4933880;28;20499;-89
2022/06/18 09:35:33;;;;;;;0.20;0.10;;;23.60;99.90;;;;;;4932552;28;20500;-90
2022/06/18 09:38:40;;;;;;;0.20;0.10;;;23.60;99.90;;;;;;4944452;28;20823;-91
2022/06/18 09:41:24;;;;;;;0.20;0.10;;;23.70;99.90;;;;;;4885047;29;20592;-88
2022/06/18 09:44:00;;;;;;;0.20;0.10;;;23.70;99.90;;;;;;4927433;28;20466;-88
2022/06/18 09:46:34;;;;;;;0.20;0.10;;;;;;;;;;4944215;28;20515;-88
2022/06/18 09:49:01;;;;;;;0.20;0.10;;;;;;;;;;4945594;28;20403;-88
2022/06/18 09:51:32;;;;;;;0.57;0.10;;;;;;;;;;4929032;28;20082;-90
2022/06/18 09:54:01;;;;;;;0.20;0.10;;;;;;;;;;4941495;28;20521;-89
2022/06/18 09:59:50;;;;;;;;;;;;;;;;;;4969079;28;20070;-89
2022/06/18 10:02:59;;;;;;;0.20;0.10;;;;;;;;;;4970686;28;19918;-88
2022/06/18 10:08:38;;;;;;;0.20;0.10;;;;;;;;;;4951408;28;20053;-88
2022/06/18 10:11:15;;;;;;;0.20;0.10;;;;;;;;;;4933505;28;20435;-89
2022/06/18 10:13:44;;;;;;;0.20;0.10;;;;;;;;;;4967007;28;20038;-88
2022/06/18 10:16:23;;;;;;;0.20;0.20;;;;;;;;;;4939240;28;20039;-90
2022/06/18 10:22:09;;;;;;;0.20;0.10;;;;;;;;;;4966511;28;20065;-88
2022/06/18 10:25:06;;;;;;;0.20;0.00;;;;;;;;;;4931534;28;20042;-88
2022/06/18 10:27:32;;;;;;;;;;;;;;;;;;4953833;28;20058;-87
2022/06/18 10:30:23;;;;;;;0.20;0.10;;;;;;;;;;4944383;28;19940;-87
2022/06/18 10:33:25;;;;;;;0.20;0.10;;;;;;;;;;4949608;28;20031;-89
2022/06/18 10:36:01;;;;;;;0.20;0.10;;;;;;;;;;4945578;28;20049;-90
2022/06/18 10:38:43;;;;;;;0.20;0.10;;;;;;;;;;4952427;28;20043;-87
2022/06/18 10:41:18;;;;;;;0.30;0.20;;;;;;;;;;4947729;28;20407;-88
2022/06/18 10:44:08;;;;;;;0.20;0.10;;;;;;;;;;4945516;28;21574;-88
2022/06/18 10:46:46;;;;;;;0.20;0.03;;;;;;;;;;4947568;28;20038;-87
2022/06/18 10:49:12;;;;;;;0.20;0.10;;;;;;;;;;4943231;28;20097;-90
2022/06/18 10:51:54;;;;;;;0.63;0.47;;;;;;;;;;4951487;28;20105;-87
2022/06/18 10:54:51;;;;;;;0.20;0.20;;;;;;;;;;4952466;28;20303;-88
2022/06/18 10:57:35;;;;;;;0.20;0.10;;;;;;;;;;4945971;28;20046;-89
2022/06/18 11:00:32;;;;;;;0.20;0.10;;;;;;;;;;4952185;28;20504;-87
2022/06/18 11:03:00;;;;;;;0.20;0.10;;;;;;;;;;4926754;28;20399;-92
2022/06/18 11:05:31;;;;;;;0.20;0.10;;;;;;;;;;4949578;28;20039;-91
2022/06/18 11:08:10;;;;;;;0.20;0.10;;;;;;;;;;4950798;28;20584;-90
2022/06/18 11:10:44;;;;;;;0.20;0.20;;;;;;;;;;4954217;28;20042;-90
2022/06/18 11:13:38;;;;;;;0.25;0.25;;;;;;;;;;4947138;28;20038;-90
2022/06/18 11:16:19;;;;;;;0.32;0.32;;;;;;;;;;4932537;28;20491;-90
2022/06/18 11:18:45;;;;;;;0.20;0.10;;;;;;;;;;4952212;28;20459;-89
2022/06/18 11:21:14;;;;;;;0.20;0.10;;;;;;;;;;4951678;28;20102;-90
2022/06/18 11:23:49;;;;;;;0.20;0.10;;;;;;;;;;4949740;28;20051;-90
2022/06/18 11:26:23;;;;;;;0.20;0.10;;;;;;;;;;4944945;28;20043;-91
2022/06/18 11:28:52;;;;;;;0.20;0.10;;;;;;;;;;4953536;28;20039;-91
2022/06/18 11:31:35;;;;;;;0.20;0.13;;;;;;;;;;4943128;28;20452;-89
2022/06/18 12:07:47;;;;;;;0.20;0.10;;;;;;;;;;4971970;28;20047;-89
2022/06/18 12:10:13;;;;;;;;;;;;;;;;;;4950225;28;20218;-90
2022/06/18 12:12:51;;;;;;;0.20;0.10;;;;;;;;;;4949509;28;19918;-89
2022/06/18 12:15:37;;;;;;;0.63;0.20;;;;;;;;;;4948270;28;20039;-91
2022/06/18 12:18:06;;;;;;;0.20;0.10;;;;;;;;;;4942462;28;20404;-87
2022/06/18 12:20:59;;;;;;;0.80;0.30;;;;;;;;;;4948825;28;20065;-91
2022/06/18 12:23:39;;;;;;;0.20;0.10;;;;;;;;;;4914816;28;20105;-90
2022/06/18 12:26:12;;;;;;;0.20;0.10;;;;;;;;;;4946736;28;20047;-92
2022/06/18 12:29:03;;;;;;;0.20;0.10;;;;;;;;;;4935074;28;20043;-90
2022/06/18 12:32:02;;;;;;;0.20;0.10;;;;;;;;;;4947175;28;20428;-92
2022/06/18 12:35:21;;;;;;;0.20;0.17;;;23.70;99.90;;;;;;4944558;28;20046;-90
2022/06/18 12:38:11;;;;;;;0.20;0.17;;;25.30;99.90;;;;;;4890452;28;20519;-92
2022/06/18 12:40:52;;;;;;;0.20;0.10;;;25.20;99.90;;;;;;4951092;28;20076;-90
2022/06/18 12:43:27;;;;;;;0.20;0.10;;;25.10;99.90;;;;;;4955311;28;20699;-87
2022/06/18 12:46:23;;;;;;;0.20;0.10;;;25.10;99.90;;;;;;4949626;28;20502;-90
2022/06/18 12:49:13;;;;;;;0.20;0.20;;;25.10;99.90;;;;;;4940635;28;20039;-87
2022/06/18 12:51:49;;;;;;;0.30;0.30;;;25.10;99.90;;;;;;4945239;28;20038;-88
2022/06/18 12:54:33;;;;;;;0.20;0.20;;;25.00;99.90;;;;;;4937020;28;20137;-89
2022/06/18 12:57:33;;;;;;;0.20;0.15;;;25.00;99.90;;;;;;4942265;28;20448;-90
2022/06/18 13:00:11;;;;;;;2.72;0.30;;;24.90;99.90;;;;;;4951729;28;20038;-90
2022/06/18 13:03:21;;;;;;;0.32;0.10;;;24.90;99.90;;;;;;4934452;28;20089;-88
2022/06/18 13:05:54;;;;;;;0.20;0.20;;;24.90;99.90;;;;;;4947470;28;20610;-92
2022/06/18 13:08:20;;;;;;;0.20;0.10;;;24.90;99.90;;;;;;4949721;28;20384;-90
2022/06/18 13:11:11;;;;;;;0.20;0.20;;;24.80;99.90;;;;;;4945513;28;20089;-91
2022/06/18 13:13:48;;;;;;;0.30;0.20;;;24.70;99.90;;;;;;4949361;28;20038;-90
2022/06/18 13:16:32;;;;;;;0.25;0.22;;;24.70;99.90;;;;;;4948216;28;20304;-91
2022/06/18 13:19:03;;;;;;;0.20;0.10;;;24.60;99.90;;;;;;4947983;28;20039;-91
2022/06/18 13:21:30;;;;;;;0.20;0.10;;;24.50;99.90;;;;;;4940049;28;20034;-91
2022/06/18 13:30:51;;;;;;;0.20;0.10;;;24.40;99.90;;;;;;4950032;28;20046;-91
2022/06/18 13:33:43;;;;;;;0.20;0.10;;;24.30;99.90;;;;;;4947078;28;20031;-89
2022/06/18 13:41:46;;;;;;;0.20;0.10;;;24.30;99.90;;;;;;4951472;28;19929;-88
2022/06/18 13:44:31;;;;;;;0.20;0.10;;;24.30;99.90;;;;;;4944551;28;20055;-90
2022/06/18 13:47:22;;;;;;;0.20;0.10;;;24.30;99.90;;;;;;4968232;28;20030;-91
2022/06/18 13:50:08;;;;;;;0.47;0.20;;;24.20;99.90;;;;;;4953751;28;20046;-88
2022/06/18 13:52:47;;;;;;;1.55;0.65;;;24.00;99.90;;;;;;4946862;28;20058;-87
2022/06/18 13:55:32;;;;;;;0.20;0.10;;;24.00;99.90;;;;;;4965852;28;20046;-89
2022/06/18 13:57:59;;;;;;;0.20;0.10;;;23.90;99.90;;;;;;4966025;28;20046;-89
2022/06/18 14:00:31;;;;;;;0.20;0.10;;;23.90;99.90;;;;;;4960481;28;21272;-88
2022/06/18 14:03:13;;;;;;;0.20;0.20;;;24.00;99.90;;;;;;4958282;28;20047;-88
2022/06/18 14:06:12;;;;;;;0.20;0.10;;;24.00;99.90;;;;;;4969084;28;20098;-87
2022/06/18 14:09:04;;;;;;;0.40;0.30;;;23.90;99.90;;;;;;4952412;28;20055;-87
2022/06/18 14:11:40;;;;;;;2.60;1.10;;;;;;;;;;4953371;28;20039;-89
2022/06/18 14:14:25;;;;;;;0.20;0.10;;;23.90;99.90;;;;;;4950361;28;20125;-92
2022/06/18 14:17:11;;;;;;;0.20;0.13;;;23.70;99.90;;;;;;4962545;28;20062;-89
2022/06/18 14:19:56;;;;;;;0.20;0.10;;;23.50;99.90;;;;;;4965155;28;20102;-89
2022/06/18 14:22:28;;;;;;;0.20;0.10;;;23.40;99.90;;;;;;4963124;28;20038;-89
2022/06/18 14:24:58;;;;;;;0.20;0.10;;;23.30;99.90;;;;;;4961339;28;20049;-87
2022/06/18 14:27:41;;;;;;;0.20;0.20;;;23.20;99.90;;;;;;4962732;28;20046;-89
2022/06/18 14:30:33;;;;;;;0.30;0.30;;;23.30;99.90;;;;;;4949533;28;20034;-89
2022/06/18 14:33:23;;;;;;;0.20;0.17;;;23.30;99.90;;;;;;4950803;28;20039;-92
2022/06/18 14:36:01;;;;;;;0.30;0.15;;;23.20;99.90;;;;;;4964227;28;20566;-88
2022/06/18 14:38:50;;;;;;;0.28;0.20;;;23.10;99.90;;;;;;4948021;28;20156;-88
2022/06/18 14:44:45;;;;;;;0.45;0.43;;;23.00;99.90;;;;;;4937058;28;20050;-86
2022/06/18 14:47:48;;;;;;;0.20;0.20;;;23.00;99.90;;;;;;4964220;28;20077;-89
2022/06/18 14:50:34;;;;;;;0.55;0.55;;;23.00;99.90;;;;;;4965834;28;20627;-87
2022/06/18 14:53:41;;;;;;;0.20;0.10;;;22.90;99.90;;;;;;4966738;28;20039;-86
2022/06/18 14:56:51;;;;;;;0.38;0.38;;;22.90;99.90;;;;;;4946577;28;20092;-89
2022/06/18 14:59:26;;;;;;;7.32;0.50;;;22.80;99.90;;;;;;4946787;28;20030;-87
2022/06/18 15:02:05;;;;;;;0.20;0.10;;;22.80;99.90;;;;;;4964577;28;20049;-88
2022/06/18 15:04:57;;;;;;;0.57;0.57;;;22.70;99.90;;;;;;4969413;28;20607;-88
2022/06/18 15:07:30;;;;;;;0.47;0.37;;;22.60;99.90;;;;;;4968580;28;20047;-89
2022/06/18 15:10:07;;;;;;;0.20;0.10;;;22.70;99.90;;;;;;4966407;28;20093;-88
2022/06/18 15:18:47;;;;;;;0.20;0.10;;;22.80;99.90;;;;;;4965674;28;20109;-87
2022/06/18 15:21:34;;;;;;;0.20;0.10;;;22.80;99.90;;;;;;4960346;28;20575;-88
2022/06/18 15:27:59;;;;;;;0.20;0.10;;;22.80;99.90;;;;;;4943861;28;20034;-87
2022/06/18 15:30:33;;;;;;;0.45;0.45;;;22.60;99.90;;;;;;4940629;28;20057;-87
2022/06/18 15:33:20;;;;;;;0.20;0.10;;;22.70;99.90;;;;;;4958705;28;20635;-86
2022/06/18 15:35:50;;;;;;;0.20;0.20;;;22.80;99.90;;;;;;4958863;28;20559;-87
2022/06/18 15:39:05;;;;;;;0.20;0.10;;;22.70;99.90;;;;;;4935407;28;20571;-89
2022/06/18 15:41:45;;;;;;;0.95;0.95;;;;;;;;;;4880873;29;20044;-87
2022/06/18 15:44:29;;;;;;;0.30;0.30;;;22.70;99.90;;;;;;4874104;29;20040;-88
2022/06/18 15:47:02;;;;;;;0.47;0.30;;;22.40;99.90;;;;;;4937291;28;20050;-88
2022/06/18 15:49:34;;;;;;;0.65;0.65;;;;;;;;;;4956593;28;20508;-87
2022/06/18 15:52:02;;;;;;;4.13;0.90;;;;;;;;;;4934855;28;20039;-88
2022/06/18 15:54:44;;;;;;;0.63;0.43;;;;;;;;;;4942642;28;20050;-88
2022/06/18 15:57:11;;;;;;;0.20;0.10;;;;;;;;;;4954389;28;20424;-86
2022/06/18 15:59:38;;;;;;;0.45;0.40;;;22.40;99.90;;;;;;4964972;28;20121;-88
2022/06/18 16:02:04;;;;;;;2.28;1.92;;;;;;;;;;4970160;28;20042;-87
2022/06/18 16:04:31;;;;;;;15.20;10.38;;;;;;;;;;4961481;28;20042;-89
2022/06/18 16:07:41;;;;;;;11.93;5.47;;;;;;;;;;4958849;28;20049;-88
2022/06/18 16:10:28;;;;;;;13.15;4.35;;;;;;;;;;4918062;28;20054;-89
2022/06/18 16:13:29;;;;;;;4.53;2.88;;;;;;;;;;4937570;28;20472;-90
2022/06/18 16:16:05;;;;;;;3.42;3.05;;;;;;;;;;4928269;28;20051;-88
2022/06/18 16:18:39;;;;;;;4.50;2.58;;;;;;;;;;4927137;28;20035;-89
2022/06/18 16:21:10;;;;;;;1.55;0.77;;;;;;;;;;4943812;28;20038;-88
2022/06/18 16:23:42;;;;;;;1.60;1.48;;;;;;;;;;4940660;28;20867;-89
2022/06/18 16:27:06;;;;;;;2.00;1.08;;;;;;;;;;4940596;28;20138;-88
2022/06/18 16:29:37;;;;;;;0.30;0.30;;;;;;;;;;4952505;28;20113;-88
2022/06/18 16:32:03;;;;;;;0.40;0.38;;;;;;;;;;4939168;28;20427;-88
2022/06/18 16:34:45;;;;;;;0.40;0.38;;;;;;;;;;4941071;28;20718;-88
2022/06/18 16:37:16;;;;;;;0.37;0.37;;;;;;;;;;4945139;28;20577;-89
2022/06/18 16:39:57;;;;;;;0.40;0.40;;;;;;;;;;4955265;28;20045;-89
2022/06/18 16:42:28;;;;;;;0.20;0.10;;;;;;;;;;4941520;28;20039;-90
2022/06/18 16:44:54;;;;;;;0.20;0.10;;;;;;;;;;4954009;28;20039;-87
2022/06/18 16:47:20;;;;;;;0.20;0.10;;;;;;;;;;4939404;28;20130;-88
2022/06/18 16:49:59;;;;;;;0.22;0.22;;;;;;;;;;4951388;28;20050;-90
2022/06/18 16:52:25;;;;;;;0.20;0.10;;;;;;;;;;4937699;28;20069;-90
2022/06/18 16:55:00;;;;;;;0.30;0.13;;;;;;;;;;4939481;28;20035;-88
2022/06/18 16:57:26;;;;;;;0.20;0.10;;;;;;;;;;4942350;28;20743;-87
2022/06/18 16:59:55;;;;;;;0.22;0.10;;;;;;;;;;4923458;28;20093;-88
2022/06/18 17:02:21;;;;;;;0.20;0.20;;;;;;;;;;4959840;28;20439;-87
2022/06/18 17:04:47;;;;;;;0.68;0.47;;;;;;;;;;4938729;28;20043;-88
2022/06/18 17:07:14;;;;;;;0.95;0.55;;;;;;;;;;4938218;28;20498;-90
2022/06/18 17:09:43;;;;;;;1.35;0.15;;;;;;;;;;4940679;28;20038;-84
2022/06/18 17:12:25;;;;;;;;;;;;;;;;;;;;;
2022/06/18 17:15:05;;;;;;;0.30;0.20;;;21.40;99.90;;;;;;4946878;28;20043;-92
2022/06/18 17:17:40;;;;;;;0.20;0.20;;;21.40;99.90;;;;;;4945964;28;20555;-88
2022/06/18 17:21:06;;;;;;;;;;;;;;;;;;;;;
2022/06/18 17:32:06;;;;;;;0.20;0.10;;;21.10;99.90;;;;;;4893956;29;20099;-91
2022/06/18 17:38:28;;;;;;;0.20;0.10;;;20.90;99.90;;;;;;4897161;29;20860;-89
2022/06/18 18:03:01;;;;;;;0.20;0.10;;;20.70;99.90;;;;;;4964155;28;20050;-90
2022/06/18 18:09:04;;;;;;;0.20;0.10;;;;;;;;;;4960391;28;20045;-91
2022/06/18 18:15:32;;;;;;;0.20;0.10;;;;;;;;;;4918355;29;20043;-88
2022/06/18 18:18:22;;;;;;;0.20;0.15;;;;;;;;;;4871302;29;20044;-91
2022/06/18 18:20:50;;;;;;;0.20;0.10;;;;;;;;;;4919724;28;20058;-90
2022/06/18 18:23:34;;;;;;;0.20;0.10;;;;;;;;;;4926573;28;20061;-91
2022/06/18 18:26:00;;;;;;;0.20;0.10;;;;;;;;;;4946972;28;20515;-90
2022/06/18 18:28:27;;;;;;;0.73;0.70;;;;;;;;;;4941244;28;20598;-89
2022/06/18 18:31:26;;;;;;;0.20;0.10;;;;;;;;;;4965275;28;20047;-89
2022/06/18 18:34:05;;;;;;;0.20;0.10;;;;;;;;;;4959220;28;20035;-92
2022/06/18 18:50:01;;;;;;;0.20;0.20;;;19.50;99.90;;;;;;4965058;28;20078;-88
2022/06/18 18:53:02;;;;;;;0.20;0.10;;;17.80;99.90;;;;;;4954781;28;20046;-87
2022/06/18 18:55:31;;;;;;;1.00;0.32;;;17.60;99.90;;;;;;4948880;28;20125;-86
2022/06/18 18:58:35;;;;;;;0.38;0.38;;;;;;;;;;4934244;28;20081;-89
2022/06/18 19:01:14;;;;;;;0.20;0.10;;;;;;;;;;4940797;28;20047;-86